createdAt,value
2017-08-12T00:57:26.652Z,90.80
2017-08-12T01:00:34.006Z,90.70
2017-08-12T02:18:46.383Z,91.60
2017-08-12T02:21:13.830Z,91.50
2017-08-12T02:23:41.282Z,91.60
2017-08-12T02:26:08.730Z,91.50
2017-08-12T02:28:36.178Z,91.50
2017-08-12T02:31:03.639Z,91.50
2017-08-12T02:33:31.083Z,91.40
2017-08-12T02:35:58.526Z,91.40
2017-08-12T02:38:25.975Z,91.40
2017-08-12T02:40:53.423Z,91.30
2017-08-12T02:43:20.877Z,91.30
2017-08-12T02:45:48.318Z,91.20
2017-08-12T02:48:15.762Z,91.20
2017-08-12T02:50:43.215Z,91.20
2017-08-12T02:53:10.651Z,91.10
2017-08-12T02:55:38.119Z,91.10
2017-08-12T02:58:05.559Z,91.20
2017-08-12T03:00:33.024Z,91.30
2017-08-12T03:03:00.483Z,91.40
2017-08-12T03:05:27.927Z,91.30
2017-08-12T03:07:55.382Z,90.90
2017-08-12T03:10:22.819Z,90.90
2017-08-12T03:12:50.272Z,91.10
2017-08-12T03:15:17.736Z,91.00
2017-08-12T03:17:45.203Z,90.80
2017-08-12T03:20:12.647Z,90.70
2017-08-12T03:22:40.091Z,90.90
2017-08-12T03:25:07.543Z,91.00
2017-08-12T03:27:34.986Z,91.00
2017-08-12T03:30:02.445Z,91.00
2017-08-12T03:48:16.262Z,90.90
2017-08-12T04:00:14.802Z,91.10
2017-08-12T05:50:02.917Z,89.10
2017-08-12T08:15:59.890Z,81.30
2017-08-12T08:18:27.339Z,78.50
2017-08-12T08:20:54.802Z,76.80
2017-08-12T08:23:22.233Z,75.50
2017-08-12T08:25:49.680Z,76.60
2017-08-12T08:28:17.106Z,75.90
2017-08-12T08:30:44.546Z,74.90
2017-08-12T08:33:12.007Z,74.80
2017-08-12T08:35:39.453Z,76.40
2017-08-12T08:38:06.920Z,76.40
2017-08-12T08:40:34.357Z,77.00
2017-08-12T08:43:01.842Z,75.40
2017-08-12T08:45:29.274Z,73.80
2017-08-12T08:47:56.712Z,72.60
2017-08-12T08:50:24.159Z,71.30
2017-08-12T08:52:51.617Z,70.40
2017-08-12T08:55:19.088Z,70.30
2017-08-12T08:57:46.534Z,70.00
2017-08-12T09:00:14.023Z,68.50
2017-08-12T09:02:41.461Z,69.80
2017-08-12T09:05:08.896Z,70.50
2017-08-12T09:07:36.338Z,71.30
2017-08-12T09:10:03.773Z,71.90
2017-08-12T09:12:31.231Z,73.90
2017-08-12T09:14:58.686Z,75.50
2017-08-12T09:17:26.130Z,76.90
2017-08-12T09:19:53.587Z,77.10
2017-08-12T09:22:21.023Z,78.00
2017-08-12T09:24:48.463Z,78.90
2017-08-12T09:27:15.900Z,78.30
2017-08-12T09:29:43.358Z,77.00
2017-08-12T09:32:10.796Z,75.00
2017-08-12T09:34:38.242Z,74.20
2017-08-12T09:37:05.689Z,72.20
2017-08-12T09:39:33.147Z,71.60
2017-08-12T09:42:00.598Z,70.50
2017-08-12T09:44:28.034Z,71.30
2017-08-12T09:46:55.470Z,72.20
2017-08-12T09:49:22.931Z,74.00
2017-08-12T09:51:50.412Z,73.80
2017-08-12T09:54:17.867Z,73.00
2017-08-12T09:56:45.331Z,75.00
2017-08-12T09:59:12.769Z,76.30
2017-08-12T10:01:40.202Z,78.70
2017-08-12T10:04:07.655Z,78.50
2017-08-12T10:06:35.090Z,82.00
2017-08-12T10:09:02.543Z,83.60
2017-08-12T10:11:30.007Z,83.50
2017-08-12T10:13:57.442Z,83.60
2017-08-12T10:16:24.886Z,83.60
2017-08-12T10:18:52.361Z,81.90
2017-08-12T10:21:19.815Z,83.10
2017-08-12T10:23:47.246Z,81.40
2017-08-12T10:26:14.679Z,82.40
2017-08-12T10:28:42.131Z,83.00
2017-08-12T10:31:09.595Z,82.70
2017-08-12T10:33:37.082Z,81.20
2017-08-12T10:36:04.544Z,81.10
2017-08-12T10:38:31.991Z,80.10
2017-08-12T10:40:59.448Z,80.00
2017-08-12T10:43:26.912Z,79.20
2017-08-12T10:45:54.338Z,78.80
2017-08-12T10:48:21.782Z,77.30
2017-08-12T10:50:49.231Z,76.70
2017-08-12T10:53:16.673Z,76.40
2017-08-12T10:55:44.122Z,75.30
2017-08-12T10:58:11.570Z,73.90
2017-08-12T11:00:39.123Z,73.90
2017-08-12T11:03:06.583Z,71.70
2017-08-12T11:05:34.028Z,71.50
2017-08-12T11:08:01.462Z,70.10
2017-08-12T11:10:28.914Z,69.50
2017-08-12T11:12:56.348Z,65.80
2017-08-12T11:15:23.805Z,67.00
2017-08-12T11:17:51.242Z,65.40
2017-08-12T11:20:18.690Z,64.50
2017-08-12T11:22:46.133Z,63.40
2017-08-12T11:25:13.603Z,62.00
2017-08-12T11:27:41.047Z,61.10
2017-08-12T11:30:08.490Z,63.40
2017-08-12T11:32:35.936Z,64.40
2017-08-12T11:35:03.379Z,64.90
2017-08-12T11:37:30.818Z,63.70
2017-08-12T11:39:58.254Z,62.60
2017-08-12T11:42:25.703Z,61.70
2017-08-12T11:44:53.143Z,61.70
2017-08-12T11:47:20.615Z,60.40
2017-08-12T11:49:48.067Z,60.00
2017-08-12T11:52:15.509Z,60.00
2017-08-12T11:54:42.970Z,60.30
2017-08-12T11:57:10.410Z,60.00
2017-08-12T11:59:37.854Z,59.30
2017-08-12T12:02:05.290Z,59.70
2017-08-12T12:04:32.734Z,59.70
2017-08-12T12:07:00.169Z,58.50
2017-08-12T12:09:27.623Z,59.70
2017-08-12T12:11:55.071Z,57.20
2017-08-12T12:14:24.394Z,58.00
2017-08-12T12:16:51.838Z,57.20
2017-08-12T12:19:19.271Z,58.80
2017-08-12T12:21:46.709Z,61.00
2017-08-12T12:24:14.147Z,60.90
2017-08-12T12:26:41.602Z,61.80
2017-08-12T12:29:09.021Z,63.50
2017-08-12T12:31:36.495Z,64.40
2017-08-12T12:34:03.933Z,65.20
2017-08-12T12:36:31.363Z,66.10
2017-08-12T12:38:58.814Z,64.60
2017-08-12T12:41:26.255Z,64.50
2017-08-12T12:43:53.694Z,64.20
2017-08-12T12:46:21.139Z,64.00
2017-08-12T12:48:48.579Z,63.50
2017-08-12T12:51:16.018Z,62.90
2017-08-12T12:53:43.457Z,62.30
2017-08-12T12:56:10.891Z,61.60
2017-08-12T12:58:38.338Z,61.50
2017-08-12T13:01:05.784Z,62.20
2017-08-12T13:03:33.227Z,61.10
2017-08-12T13:06:00.671Z,61.50
2017-08-12T13:08:28.484Z,61.30
2017-08-12T13:10:55.931Z,61.60
2017-08-12T13:13:23.362Z,62.30
2017-08-12T13:15:50.794Z,62.70
2017-08-12T13:18:18.222Z,63.00
2017-08-12T13:20:45.695Z,63.90
2017-08-12T13:23:13.138Z,64.80
2017-08-12T13:25:40.583Z,66.00
2017-08-12T13:28:08.018Z,67.00
2017-08-12T13:30:35.448Z,67.00
2017-08-12T13:33:02.887Z,67.10
2017-08-12T13:35:30.314Z,66.10
2017-08-12T13:37:57.755Z,65.20
2017-08-12T13:40:25.191Z,64.90
2017-08-12T13:42:52.638Z,64.70
2017-08-12T13:45:20.152Z,64.20
2017-08-12T13:47:47.574Z,64.10
2017-08-12T13:50:15.014Z,63.00
2017-08-12T13:52:42.455Z,62.80
2017-08-12T13:55:09.894Z,63.40
2017-08-12T13:57:37.335Z,64.70
2017-08-12T14:00:04.770Z,64.40
2017-08-12T14:02:32.206Z,65.40
2017-08-12T14:04:59.650Z,66.50
2017-08-12T14:07:27.084Z,66.10
2017-08-12T14:09:54.513Z,65.80
2017-08-12T14:12:21.960Z,65.50
2017-08-12T14:14:49.447Z,65.60
2017-08-12T14:17:16.870Z,65.30
2017-08-12T14:19:44.306Z,63.80
2017-08-12T14:22:11.748Z,63.60
2017-08-12T14:24:39.182Z,63.00
2017-08-12T14:27:06.652Z,62.60
2017-08-12T14:29:34.083Z,61.80
2017-08-12T14:32:01.519Z,62.00
2017-08-12T14:34:28.957Z,61.50
2017-08-12T14:36:56.385Z,61.00
2017-08-12T14:39:23.844Z,60.70
2017-08-12T14:41:51.272Z,59.80
2017-08-12T14:44:18.701Z,60.00
2017-08-12T14:46:46.134Z,60.70
2017-08-12T14:49:13.590Z,61.30
2017-08-12T14:51:41.021Z,61.70
2017-08-12T14:54:08.451Z,61.40
2017-08-12T14:56:35.891Z,62.00
2017-08-12T14:59:03.334Z,63.30
2017-08-12T15:01:30.770Z,63.20
2017-08-12T15:03:58.212Z,63.20
2017-08-12T15:06:25.655Z,63.60
2017-08-12T15:08:53.092Z,63.90
2017-08-12T15:11:20.538Z,63.90
2017-08-12T15:13:47.975Z,64.00
2017-08-12T15:16:15.415Z,64.50
2017-08-12T15:18:42.863Z,64.90
2017-08-12T15:21:10.299Z,64.80
2017-08-12T15:23:37.779Z,65.10
2017-08-12T15:26:05.276Z,64.80
2017-08-12T15:28:32.764Z,65.40
2017-08-12T15:31:00.296Z,65.10
2017-08-12T15:33:27.860Z,65.50
2017-08-12T15:35:55.382Z,66.20
2017-08-12T15:38:22.842Z,65.90
2017-08-12T15:40:50.306Z,66.20
2017-08-12T15:43:17.790Z,66.50
2017-08-12T15:45:45.295Z,66.70
2017-08-12T15:48:12.758Z,66.90
2017-08-12T15:50:40.340Z,66.70
2017-08-12T15:53:07.794Z,66.70
2017-08-12T15:55:35.280Z,66.90
2017-08-12T15:58:02.889Z,66.90
2017-08-12T16:00:30.310Z,66.60
2017-08-12T16:02:57.788Z,66.40
2017-08-12T16:05:25.289Z,65.50
2017-08-12T16:07:52.752Z,65.40
2017-08-12T16:10:20.351Z,65.80
2017-08-12T16:12:47.837Z,65.80
2017-08-12T16:15:15.363Z,66.10
2017-08-12T16:17:42.834Z,66.60
2017-08-12T16:20:10.335Z,67.10
2017-08-12T16:22:38.881Z,67.10
2017-08-12T16:25:06.654Z,67.20
2017-08-12T16:27:34.157Z,67.70
2017-08-12T16:30:01.658Z,68.40
2017-08-12T16:32:29.132Z,68.60
2017-08-12T16:34:56.641Z,68.50
2017-08-12T16:37:24.379Z,68.20
2017-08-12T16:39:51.931Z,68.60
2017-08-12T16:42:19.426Z,68.40
2017-08-12T16:44:46.916Z,68.20
2017-08-12T16:47:14.418Z,66.90
2017-08-12T16:49:41.922Z,66.80
2017-08-12T16:52:09.555Z,67.20
2017-08-12T16:54:37.087Z,67.60
2017-08-12T16:57:05.267Z,67.40
2017-08-12T16:59:32.894Z,68.00
2017-08-12T17:02:00.387Z,68.40
2017-08-12T17:04:27.863Z,68.20
2017-08-12T17:06:55.321Z,68.30
2017-08-12T17:09:22.774Z,68.80
2017-08-12T17:11:50.239Z,68.60
2017-08-12T17:14:17.698Z,68.70
2017-08-12T17:16:45.163Z,68.60
2017-08-12T17:19:12.620Z,68.70
2017-08-12T17:21:40.093Z,68.80
2017-08-12T17:24:07.636Z,68.80
2017-08-12T17:26:35.236Z,68.90
2017-08-12T17:29:02.844Z,69.20
2017-08-12T17:31:30.341Z,70.30
2017-08-12T17:33:57.811Z,70.30
2017-08-12T17:36:25.334Z,69.90
2017-08-12T17:38:53.007Z,70.00
2017-08-12T17:41:20.667Z,69.90
2017-08-12T17:43:48.326Z,70.50
2017-08-12T17:46:15.794Z,70.20
2017-08-12T17:48:43.572Z,70.40
2017-08-12T17:51:11.255Z,70.20
2017-08-12T17:53:39.887Z,70.50
2017-08-12T17:56:27.788Z,70.80
2017-08-12T17:58:55.588Z,71.10
2017-08-12T18:01:27.070Z,71.30
2017-08-12T18:03:54.582Z,71.50
2017-08-12T18:06:27.347Z,71.70
2017-08-12T18:08:56.960Z,72.10
2017-08-12T18:11:35.614Z,72.80
2017-08-12T18:14:06.106Z,72.40
2017-08-12T19:01:02.910Z,76.50
2017-08-12T19:03:44.313Z,76.60
2017-08-12T19:57:51.192Z,82.20
2017-08-12T20:17:25.339Z,85.10
2017-08-12T20:19:52.765Z,84.90
2017-08-12T20:22:20.978Z,85.90
2017-08-12T20:24:48.414Z,85.90
2017-08-12T20:27:15.878Z,86.10
2017-08-12T20:29:43.322Z,86.20
2017-08-12T20:32:11.535Z,86.70
2017-08-12T20:34:38.988Z,86.60
2017-08-12T20:37:06.422Z,86.90
2017-08-12T20:39:33.861Z,87.60
2017-08-12T20:42:02.062Z,87.40
2017-08-12T20:44:29.509Z,87.30
2017-08-12T20:46:56.946Z,87.60
2017-08-12T20:49:25.146Z,88.90
2017-08-12T20:51:52.588Z,88.30
2017-08-12T20:54:20.794Z,89.20
2017-08-12T20:56:48.934Z,89.10
2017-08-12T20:59:17.142Z,89.30
2017-08-12T21:01:44.598Z,89.30
2017-08-12T21:04:12.034Z,89.20
2017-08-12T21:06:40.234Z,89.60
2017-08-12T21:09:07.673Z,89.60
2017-08-12T21:11:35.116Z,89.80
2017-08-12T21:14:03.326Z,90.20
2017-08-12T21:16:30.761Z,89.70
2017-08-12T21:18:58.993Z,90.10
2017-08-12T21:21:26.428Z,90.00
2017-08-12T21:23:53.863Z,90.00
2017-08-12T21:26:21.302Z,90.20
2017-08-12T21:28:49.505Z,90.30
2017-08-12T21:31:16.948Z,90.30
2017-08-12T21:33:44.387Z,90.30
2017-08-12T21:36:12.614Z,90.80
2017-08-12T21:38:40.043Z,90.50
2017-08-12T21:41:07.478Z,90.60
2017-08-12T21:43:35.681Z,90.90
2017-08-12T21:46:03.131Z,90.90
2017-08-12T21:48:30.574Z,90.90
2017-08-12T21:50:58.778Z,90.90
2017-08-12T21:53:26.231Z,90.90
2017-08-12T21:55:53.661Z,90.80
2017-08-12T21:58:21.859Z,90.90
2017-08-12T22:00:49.327Z,90.70
2017-08-12T22:03:16.758Z,90.70
2017-08-12T22:05:44.974Z,90.70
2017-08-12T22:08:12.418Z,90.70
2017-08-12T22:10:39.899Z,90.70
2017-08-12T22:13:07.335Z,90.70
2017-08-12T22:15:34.774Z,90.80
2017-08-12T22:18:02.979Z,91.00
2017-08-12T22:20:30.423Z,90.90
2017-08-12T22:22:57.859Z,91.00
2017-08-12T22:25:26.065Z,90.40
2017-08-12T22:27:53.506Z,90.50
2017-08-12T22:30:20.986Z,90.20
2017-08-12T22:32:48.413Z,89.60
2017-08-12T22:35:15.855Z,89.20
2017-08-12T22:37:44.059Z,89.10
2017-08-12T22:40:11.502Z,88.40
2017-08-12T22:42:39.702Z,88.00
2017-08-12T22:45:07.146Z,87.90
2017-08-12T22:47:34.602Z,88.60
2017-08-12T22:50:02.786Z,88.60
2017-08-12T22:52:30.227Z,88.60
2017-08-12T22:54:58.426Z,88.40
2017-08-12T22:57:25.866Z,88.40
2017-08-12T22:59:53.306Z,88.20
2017-08-12T23:02:21.523Z,88.20
2017-08-12T23:04:48.959Z,88.20
2017-08-12T23:07:16.391Z,88.30
2017-08-12T23:09:44.610Z,88.50
